Time;durP1;ratioP1;P1;durP2;ratioP2;P2;SDS_P1;SDS_P2;PMS_P1;PMS_P2;Temp;Humidity;BMP_temperature;BMP_pressure;BME280_temperature;BME280_humidity;BME280_pressure;Samples;Min_cycle;Max_cycle;Signal;HPM_P1;HPM_P2
2021/08/06 00:01:19;;;;;;;;;9.00;9.00;;;;;17.62;86.04;98415.34;3259383;40;2746059;-58
2021/08/06 00:03:47;;;;;;;;;7.00;7.00;;;;;17.56;86.14;98424.97;3260996;40;2743972;-56
2021/08/06 00:06:26;;;;;;;;;8.50;8.50;;;;;17.63;85.96;98420.56;3261535;40;2740835;-58
2021/08/06 00:08:57;;;;;;;;;9.00;9.00;;;;;17.59;86.10;98421.97;3257080;40;2742974;-58
2021/08/06 00:11:29;;;;;;;;;9.00;9.00;;;;;17.53;85.69;98417.19;3263875;40;2759639;-57
2021/08/06 00:13:59;;;;;;;;;11.40;9.20;;;;;17.56;85.74;98424.97;3280847;40;2775228;-57
2021/08/06 00:16:26;;;;;;;;;8.00;8.00;;;;;17.63;85.58;98425.16;3264669;40;2749203;-58
2021/08/06 00:18:54;;;;;;;;;9.50;7.50;;;;;17.49;85.91;98415.84;3264482;40;2760701;-57
2021/08/06 00:21:22;;;;;;;;;9.00;9.00;;;;;17.49;86.57;98422.13;3266242;40;2737734;-58
2021/08/06 00:23:52;;;;;;;;;11.20;10.00;;;;;17.64;85.49;98425.00;3270569;40;2788789;-57
2021/08/06 00:26:19;;;;;;;;;13.00;11.50;;;;;17.68;85.69;98423.63;3266667;40;2788778;-58
2021/08/06 00:28:47;;;;;;;;;10.00;10.00;;;;;17.44;86.22;98410.06;3262279;40;2783668;-58
2021/08/06 00:31:16;;;;;;;;;11.60;9.60;;;;;17.50;85.74;98414.81;3295754;40;2787739;-58
2021/08/06 00:33:43;;;;;;;;;9.00;9.00;;;;;17.67;85.34;98413.81;3262800;40;2754396;-58
2021/08/06 00:36:11;;;;;;;;;11.00;11.00;;;;;17.53;85.56;98411.75;3260953;40;2787760;-57
2021/08/06 00:38:39;;;;;;;;;11.00;11.00;;;;;17.64;85.23;98416.00;3256180;40;2790213;-56
2021/08/06 00:41:06;;;;;;;;;11.00;11.00;;;;;17.68;84.72;98422.78;3276838;40;2786703;-57
2021/08/06 00:43:34;;;;;;;;;13.00;13.00;;;;;17.33;86.49;98425.66;3256187;40;3518945;-57
2021/08/06 00:46:03;;;;;;;;;10.00;8.50;;;;;17.44;85.64;98431.78;3275295;40;2765857;-56
2021/08/06 00:48:31;;;;;;;;;10.00;10.00;;;;;17.42;85.46;98440.09;3259325;40;2789816;-57
2021/08/06 00:50:59;;;;;;;;;10.00;10.00;;;;;17.28;85.74;98433.47;3263240;40;2782544;-58
2021/08/06 00:53:26;;;;;;;;;12.50;12.00;;;;;17.49;85.44;98432.97;3261089;40;2787803;-57
2021/08/06 00:55:55;;;;;;;;;13.00;13.00;;;;;17.38;86.19;98430.59;3274198;40;2799183;-56
2021/08/06 00:58:24;;;;;;;;;12.00;10.00;;;;;17.39;85.41;98429.56;3269923;40;2791921;-57
2021/08/06 01:00:52;;;;;;;;;13.00;13.00;;;;;17.04;86.28;98428.84;3265096;40;2801393;-56
2021/08/06 01:03:26;;;;;;;;;13.00;13.00;;;;;17.15;86.35;98435.81;3285267;40;2788783;-57
2021/08/06 01:06:08;;;;;;;;;10.50;10.50;;;;;16.98;86.52;98425.94;3267926;40;2789050;-56
2021/08/06 01:08:40;;;;;;;;;12.20;11.00;;;;;17.09;86.68;98429.22;3270485;40;2783566;-56
2021/08/06 01:11:08;;;;;;;;;14.00;12.00;;;;;17.14;86.22;98430.56;3261315;40;2780449;-56
2021/08/06 01:13:49;;;;;;;;;12.00;10.50;;;;;17.18;85.86;98426.50;3269431;40;2797110;-56
2021/08/06 01:16:18;;;;;;;;;11.00;11.00;;;;;17.10;85.44;98427.34;3259190;40;3504371;-56
2021/08/06 01:19:13;;;;;;;;;12.00;12.00;;;;;17.32;84.96;98425.81;3270720;40;3527547;-57
2021/08/06 01:21:49;;;;;;;;;11.50;11.00;;;;;17.24;85.16;98426.66;3276149;40;2790865;-57
2021/08/06 01:24:21;;;;;;;;;11.00;11.00;;;;;17.26;85.33;98427.34;3261627;40;2786746;-57
2021/08/06 01:26:49;;;;;;;;;12.33;12.33;;;;;17.29;85.22;98418.88;3274635;40;3523150;-57
2021/08/06 01:29:17;;;;;;;;;12.50;12.50;;;;;17.31;84.93;98421.44;3275757;40;2805478;-57
2021/08/06 01:31:44;;;;;;;;;10.67;10.67;;;;;16.99;85.76;98416.81;3263592;40;3515851;-57
2021/08/06 01:34:11;;;;;;;;;12.50;12.50;;;;;17.11;86.17;98421.75;3282619;40;2798147;-56
2021/08/06 01:36:39;;;;;;;;;10.33;10.33;;;;;17.16;85.81;98423.94;3256842;40;3517915;-56
2021/08/06 01:39:09;;;;;;;;;11.00;11.00;;;;;17.22;85.06;98433.28;3270749;40;3515840;-57
2021/08/06 01:41:58;;;;;;;;;13.00;11.00;;;;;17.20;84.95;98438.03;3270681;40;2797130;-56
2021/08/06 01:44:52;;;;;;;;;12.67;12.67;;;;;17.12;85.54;98436.16;3280412;40;2785641;-56
2021/08/06 01:47:48;;;;;;;;;12.67;9.33;;;;;16.97;85.60;98435.94;3272697;40;2777296;-57
2021/08/06 01:50:26;;;;;;;;;10.00;10.00;;;;;16.92;85.44;98421.19;3271258;40;2785676;-57
2021/08/06 01:53:00;;;;;;;;;8.50;8.50;;;;;16.99;85.96;98430.38;3272854;40;2756510;-54
2021/08/06 01:55:33;;;;;;;;;11.67;11.67;;;;;16.88;85.66;98429.66;3258823;40;3517123;-57
2021/08/06 01:58:03;;;;;;;;;10.50;10.50;;;;;16.76;87.11;98430.09;3281207;40;2791891;-56
2021/08/06 02:00:32;;;;;;;;;4.00;4.00;;;;;16.79;86.37;98440.66;3266111;40;2754403;-56
2021/08/06 02:02:59;;;;;;;;;12.50;11.50;;;;;16.73;86.89;98442.13;3259610;40;2794219;-57
2021/08/06 02:05:28;;;;;;;;;10.67;9.33;;;;;16.56;87.46;98443.06;3254283;40;2778475;-57
2021/08/06 02:07:56;;;;;;;;;12.00;12.00;;;;;16.67;86.53;98445.50;3270414;40;3527579;-58
2021/08/06 02:10:24;;;;;;;;;12.00;12.00;;;;;16.67;86.65;98440.94;3276953;40;2788754;-57
2021/08/06 02:12:51;;;;;;;;;10.50;10.50;;;;;16.62;86.57;98442.44;3266342;40;2789811;-56
2021/08/06 02:15:19;;;;;;;;;9.00;9.00;;;;;16.55;87.26;98435.97;3264925;40;2757564;-58
2021/08/06 02:17:49;;;;;;;;;13.00;13.00;;;;;16.58;87.61;98438.34;3255527;40;3525223;-57
2021/08/06 02:20:19;;;;;;;;;12.33;12.33;;;;;16.43;87.80;98436.25;3274960;40;2789219;-57
2021/08/06 02:22:47;;;;;;;;;12.67;12.67;;;;;16.55;87.48;98441.38;3280166;40;2790952;-57
2021/08/06 02:25:19;;;;;;;;;13.00;12.50;;;;;16.50;87.39;98438.31;3278202;40;2801266;-57
2021/08/06 02:27:48;;;;;;;;;12.00;12.00;;;;;16.28;88.45;98439.75;3268945;40;2789820;-57
2021/08/06 02:30:18;;;;;;;;;12.50;11.00;;;;;16.49;87.54;98437.47;3268445;40;2784666;-57
2021/08/06 02:32:46;;;;;;;;;12.33;10.67;;;;;16.38;88.12;98433.19;3247898;40;3517942;-56
2021/08/06 02:35:14;;;;;;;;;14.00;13.00;;;;;16.17;88.31;98433.59;3267090;40;3537717;-57
2021/08/06 02:37:45;;;;;;;;;13.33;12.00;;;;;16.29;88.79;98425.19;3272725;40;3524161;-57
2021/08/06 02:40:13;;;;;;;;;14.00;14.00;;;;;16.33;88.55;98422.00;3285456;40;2806484;-57
2021/08/06 02:42:41;;;;;;;;;15.00;12.00;;;;;16.17;88.75;98430.88;3266945;40;2807534;-57
2021/08/06 02:45:10;;;;;;;;;12.33;11.00;;;;;16.19;88.78;98425.28;3261064;40;3513757;-57
2021/08/06 02:47:37;;;;;;;;;12.00;12.00;;;;;16.22;88.27;98427.69;3283808;40;2782558;-57
2021/08/06 02:50:04;;;;;;;;;11.00;11.00;;;;;16.20;88.70;98422.44;3260795;40;2792936;-58
2021/08/06 02:52:32;;;;;;;;;13.33;13.00;;;;;16.21;87.64;98425.97;3256857;40;3519012;-57
2021/08/06 02:55:00;;;;;;;;;12.33;12.00;;;;;16.18;88.63;98420.88;3267863;40;3507488;-57
2021/08/06 02:57:29;;;;;;;;;12.00;10.80;;;;;16.16;88.78;98425.63;3290635;40;2789831;-57
2021/08/06 02:59:57;;;;;;;;;14.33;12.67;;;;;16.04;88.64;98435.03;3258980;40;3522128;-57
2021/08/06 03:02:25;;;;;;;;;13.33;13.33;;;;;15.99;88.84;98441.78;3272248;40;3527294;-56
2021/08/06 03:04:53;;;;;;;;;13.00;13.00;;;;;16.08;89.13;98433.69;3272221;40;3532529;-58
2021/08/06 03:07:21;;;;;;;;;12.50;12.00;;;;;15.98;88.52;98426.53;3259776;40;2788005;-57
2021/08/06 03:09:49;;;;;;;;;11.00;11.00;;;;;15.91;89.09;98449.00;3256913;40;2788455;-56
2021/08/06 03:12:16;;;;;;;;;13.00;13.00;;;;;16.05;88.56;98450.25;3277114;40;2785652;-58
2021/08/06 03:14:43;;;;;;;;;13.00;13.00;;;;;15.89;88.97;98457.25;3259740;40;2804398;-57
2021/08/06 03:17:11;;;;;;;;;15.00;13.00;;;;;15.82;90.07;98450.78;3260602;40;2803364;-56
2021/08/06 03:19:39;;;;;;;;;10.67;10.67;;;;;15.93;89.98;98453.25;3256654;40;3526271;-57
2021/08/06 03:22:06;;;;;;;;;15.00;13.50;;;;;15.82;90.43;98441.81;3276283;40;2498252;-56
2021/08/06 03:24:34;;;;;;;;;14.00;13.33;;;;;15.89;89.46;98456.41;3257686;40;3523120;-56
2021/08/06 03:27:03;;;;;;;;;14.33;14.33;;;;;15.92;89.32;98456.94;3272283;40;3533540;-55
2021/08/06 03:29:30;;;;;;;;;13.50;13.00;;;;;15.88;90.64;98455.56;3276182;40;2790853;-57
2021/08/06 03:31:57;;;;;;;;;14.00;12.50;;;;;15.69;90.33;98461.16;3265487;40;2796075;-56
2021/08/06 03:34:25;;;;;;;;;13.00;12.67;;;;;15.77;90.23;98453.97;3261364;40;3533798;-57
2021/08/06 03:36:53;;;;;;;;;13.67;13.67;;;;;15.65;90.74;98454.34;3255149;40;3528624;-57
2021/08/06 03:39:22;;;;;;;;;14.00;14.00;;;;;15.65;91.18;98459.75;3255689;40;3514789;-56
2021/08/06 03:41:50;;;;;;;;;16.67;16.67;;;;;15.81;90.20;98465.34;3263102;40;3562713;-56
2021/08/06 03:44:18;;;;;;;;;16.33;15.00;;;;;15.68;90.45;98463.00;3261159;40;3547095;-57
2021/08/06 03:46:46;;;;;;;;;14.67;14.67;;;;;15.81;90.34;98454.50;3271733;40;3529372;-55
2021/08/06 03:49:14;;;;;;;;;15.33;15.33;;;;;15.65;90.09;98471.44;3274617;40;2810777;-56
2021/08/06 03:51:42;;;;;;;;;15.33;14.33;;;;;15.74;90.23;98469.66;3272895;40;3543151;-54
2021/08/06 03:54:09;;;;;;;;;14.50;14.50;;;;;15.83;89.49;98466.03;3260123;40;2805444;-56
2021/08/06 03:56:37;;;;;;;;;13.50;11.50;;;;;15.85;88.95;98472.13;3260805;40;2791907;-55
2021/08/06 03:59:04;;;;;;;;;17.00;16.00;;;;;15.69;90.29;98477.41;3258930;40;2826526;-57
2021/08/06 04:01:32;;;;;;;;;15.00;13.00;;;;;15.91;89.23;98487.75;3255848;40;3512683;-54
2021/08/06 04:04:00;;;;;;;;;13.33;13.33;;;;;15.94;89.33;98492.00;3271601;40;3531491;-56
2021/08/06 04:06:27;;;;;;;;;12.50;12.50;;;;;15.85;89.50;98493.78;3276300;40;2802387;-56
2021/08/06 04:08:55;;;;;;;;;15.00;13.00;;;;;15.94;88.55;98490.13;3260510;40;2796065;-54
2021/08/06 04:11:23;;;;;;;;;11.00;11.00;;;;;15.92;89.24;98497.53;3256269;40;3512708;-57
2021/08/06 04:13:51;;;;;;;;;11.33;11.33;;;;;15.71;90.33;98502.47;3271899;40;3514820;-57
2021/08/06 04:16:19;;;;;;;;;9.33;8.67;;;;;15.81;89.61;98500.50;3263847;40;2760662;-57
2021/08/06 04:18:46;;;;;;;;;14.00;13.00;;;;;15.79;90.74;98502.53;3274606;40;2812735;-56
2021/08/06 04:21:15;;;;;;;;;12.00;12.00;;;;;17.44;82.69;98513.19;3272160;40;2788800;-56
2021/08/06 04:23:42;;;;;;;;;13.50;12.50;;;;;17.02;82.13;98508.69;3268188;40;2795011;-57
2021/08/06 04:26:10;;;;;;;;;12.00;12.00;;;;;16.63;84.51;98514.59;3256516;40;3509610;-55
2021/08/06 04:28:39;;;;;;;;;11.33;11.00;;;;;16.25;87.68;98511.34;3271469;40;3512719;-56
2021/08/06 04:31:09;;;;;;;;;16.67;12.67;;;;;16.22;86.85;98508.94;3285410;40;2805447;-57
2021/08/06 04:33:38;;;;;;;;;61.00;50.00;;;;;16.21;87.02;98507.22;3277649;40;2865976;-57
2021/08/06 04:36:06;;;;;;;;;20.00;18.67;;;;;16.09;88.67;98503.06;3273890;40;3573111;-57
2021/08/06 04:38:33;;;;;;;;;11.50;11.50;;;;;16.29;87.33;98507.28;3260125;40;2791894;-57
2021/08/06 04:41:01;;;;;;;;;13.50;12.00;;;;;16.35;86.33;98501.25;3261058;40;2787767;-56
2021/08/06 04:43:29;;;;;;;;;11.33;11.33;;;;;16.27;86.78;98506.59;3255869;40;3513752;-54
2021/08/06 04:45:57;;;;;;;;;13.00;12.00;;;;;16.25;87.17;98516.75;3271578;40;2791930;-57
2021/08/06 04:48:25;;;;;;;;;11.67;11.00;;;;;16.27;86.58;98511.16;3271533;40;2783585;-56
2021/08/06 04:50:53;;;;;;;;;9.33;9.33;;;;;16.32;87.13;98496.13;3271941;40;3480424;-56
2021/08/06 04:53:20;;;;;;;;;13.00;13.00;;;;;16.54;86.13;98511.00;3272586;40;2788806;-55
2021/08/06 04:55:48;;;;;;;;;13.00;13.00;;;;;16.52;85.62;98510.28;3255687;40;3524173;-57
2021/08/06 04:58:16;;;;;;;;;13.33;12.00;;;;;16.55;85.87;98509.13;3271177;40;2793100;-54
2021/08/06 05:00:44;;;;;;;;;13.00;10.00;;;;;16.62;85.98;98521.88;3276286;40;2784623;-56
2021/08/06 05:03:11;;;;;;;;;13.00;13.00;;;;;16.95;85.07;98523.91;3261607;40;2787764;-57
2021/08/06 05:05:38;;;;;;;;;10.00;10.00;;;;;17.43;80.61;98523.22;3256214;40;2781539;-58
2021/08/06 05:08:07;;;;;;;;;11.00;11.00;;;;;17.24;81.71;98518.91;3269814;40;2786710;-56
2021/08/06 05:10:36;;;;;;;;;10.40;9.00;;;;;17.57;80.19;98524.41;3269931;40;2772111;-57
2021/08/06 05:13:04;;;;;;;;;13.00;12.67;;;;;17.99;78.15;98526.16;3255847;40;2776298;-51
2021/08/06 05:15:32;;;;;;;;;11.00;11.00;;;;;17.19;80.92;98531.25;3270882;40;2790096;-57
2021/08/06 05:18:01;;;;;;;;;8.60;8.60;;;;;17.51;80.81;98530.53;3294831;40;2740849;-56
2021/08/06 05:20:29;;;;;;;;;9.33;9.33;;;;;18.05;78.66;98533.63;3257290;40;2766930;-58
2021/08/06 05:22:57;;;;;;;;;8.00;8.00;;;;;17.48;80.68;98531.69;3277689;40;2741896;-56
2021/08/06 05:25:25;;;;;;;;;12.33;12.33;;;;;17.48;80.74;98530.81;3256672;40;3524152;-56
2021/08/06 05:27:54;;;;;;;;;11.00;10.40;;;;;17.45;80.13;98537.44;3294319;40;2787720;-56
2021/08/06 05:30:22;;;;;;;;;8.00;8.00;;;;;18.42;76.73;98541.22;3256707;40;2746051;-57
2021/08/06 05:32:50;;;;;;;;;9.67;9.67;;;;;17.96;78.54;98540.94;3272614;40;2771069;-57
2021/08/06 05:35:19;;;;;;;;;8.00;8.00;;;;;17.93;77.51;98540.41;3274226;40;2754391;-56
2021/08/06 05:37:48;;;;;;;;;9.00;8.80;;;;;18.54;76.35;98539.00;3274016;40;2749181;-56
2021/08/06 05:40:17;;;;;;;;;8.33;8.33;;;;;18.85;73.85;98540.94;3270248;40;2736688;-56
2021/08/06 05:42:46;;;;;;;;;9.00;7.80;;;;;17.97;77.76;98539.06;3285667;40;2752582;-56
2021/08/06 05:45:15;;;;;;;;;10.20;10.20;;;;;17.85;79.11;98538.56;3268646;40;2787705;-58
2021/08/06 05:47:45;;;;;;;;;9.50;9.50;;;;;17.57;79.68;98545.28;3257311;40;2768991;-55
2021/08/06 05:50:15;;;;;;;;;10.67;8.33;;;;;17.57;79.65;98546.13;3257477;40;2765838;-57
2021/08/06 05:52:43;;;;;;;;;9.00;7.00;;;;;17.52;79.63;98552.03;3278386;40;2733576;-55
2021/08/06 05:55:14;;;;;;;;;7.00;7.00;;;;;17.59;79.60;98554.94;3282087;40;3434573;-56
2021/08/06 05:57:42;;;;;;;;;9.00;9.00;;;;;17.54;79.52;98557.31;3274571;40;2746055;-57
2021/08/06 06:00:12;;;;;;;;;8.00;8.00;;;;;17.61;78.62;98555.59;3268629;40;2741897;-58
2021/08/06 06:02:39;;;;;;;;;8.50;8.00;;;;;17.58;78.81;98563.25;3268847;40;2733563;-56
2021/08/06 06:05:09;;;;;;;;;7.80;7.80;;;;;17.71;78.56;98567.16;3272740;40;2748169;-58
2021/08/06 06:07:47;;;;;;;;;8.50;8.50;;;;;17.65;77.47;98565.13;3274341;40;2748161;-57
2021/08/06 06:10:22;;;;;;;;;12.20;10.00;;;;;17.65;77.95;98569.72;3271417;40;2793947;-58
2021/08/06 06:12:51;;;;;;;;;6.80;6.80;;;;;17.65;78.15;98567.84;3272267;40;2732526;-57
2021/08/06 06:15:19;;;;;;;;;12.50;8.50;;;;;17.65;78.01;98567.00;3277359;40;2771090;-54
2021/08/06 06:17:49;;;;;;;;;9.20;9.00;;;;;17.95;77.06;98570.97;3270995;40;2743972;-61
2021/08/06 06:20:19;;;;;;;;;10.00;9.00;;;;;17.92;77.58;98565.88;3270900;40;2761699;-55
2021/08/06 06:22:48;;;;;;;;;22.00;12.50;;;;;18.15;76.20;98576.91;3255826;40;2822093;-54
2021/08/06 06:25:17;;;;;;;;;9.00;9.00;;;;;18.15;75.85;98575.03;3271244;40;2739786;-55
2021/08/06 06:27:58;;;;;;;;;11.67;8.00;;;;;18.31;75.55;98581.50;3273764;40;2768983;-57
2021/08/06 06:30:31;;;;;;;;;9.86;7.71;;;;;18.36;75.25;98606.28;3297400;40;3473416;-58
2021/08/06 06:33:01;;;;;;;;;7.20;6.80;;;;;18.38;74.83;98590.66;3287590;40;2746060;-52
2021/08/06 06:35:29;;;;;;;;;8.00;7.00;;;;;18.72;73.77;98605.88;3258169;40;2735679;-50
2021/08/06 06:37:56;;;;;;;;;6.00;6.00;;;;;18.55;74.42;98615.94;3262175;40;2741100;-54
2021/08/06 06:40:26;;;;;;;;;6.00;6.00;;;;;19.16;72.39;98624.50;3262650;40;2739801;-54
2021/08/06 06:42:54;;;;;;;;;7.00;7.00;;;;;18.95;72.43;98623.19;3275242;40;2729377;-49
2021/08/06 06:45:23;;;;;;;;;6.00;6.00;;;;;19.19;72.22;98630.44;3274434;40;2740875;-52
2021/08/06 06:47:52;;;;;;;;;7.67;7.67;;;;;20.01;69.16;98638.25;3275115;40;2731507;-50
2021/08/06 06:50:24;;;;;;;;;6.00;6.00;;;;;19.13;70.04;98630.31;3275154;40;2735671;-55
2021/08/06 06:52:52;;;;;;;;;7.33;5.33;;;;;19.46;70.50;98626.44;3275302;40;2743987;-53
2021/08/06 06:55:21;;;;;;;;;5.00;5.00;;;;;20.32;67.04;98632.72;3274679;40;2742926;-53
2021/08/06 06:57:58;;;;;;;;;5.00;5.00;;;;;20.59;66.74;98636.78;3287497;40;2724186;-54
2021/08/06 07:00:27;;;;;;;;;6.00;6.00;;;;;;;;3275113;40;2737737;-55
2021/08/06 07:02:56;;;;;;;;;4.00;4.00;;;;;21.64;62.92;98654.94;3275264;40;2737719;-54
2021/08/06 07:05:25;;;;;;;;;4.20;4.00;;;;;21.24;65.36;98637.97;3286734;40;2734601;-54
2021/08/06 07:07:53;;;;;;;;;5.33;5.00;;;;;20.09;68.54;98637.31;3274449;40;2745052;-49
2021/08/06 07:10:21;;;;;;;;;5.00;5.00;;;;;21.10;65.84;98630.63;3275200;40;2721388;-50
2021/08/06 07:12:51;;;;;;;;;6.00;6.00;;;;;20.79;66.58;98650.72;3287402;40;2737749;-57
2021/08/06 07:15:20;;;;;;;;;6.40;4.60;;;;;20.65;65.81;98648.84;3287778;40;2743203;-58
2021/08/06 07:17:49;;;;;;;;;6.60;5.00;;;;;20.61;65.74;98647.50;3272036;40;2740914;-58
2021/08/06 07:20:19;;;;;;;;;5.00;5.00;;;;;19.89;66.66;98639.69;3276226;40;2735646;-58
2021/08/06 07:22:49;;;;;;;;;9.80;7.00;;;;;20.47;66.97;98634.66;3288154;40;2750230;-57
2021/08/06 07:25:18;;;;;;;;;4.00;4.00;;;;;20.27;66.14;98639.75;3272032;40;2739801;-59
2021/08/06 07:27:47;;;;;;;;;5.00;5.00;;;;;20.36;66.18;98633.22;3259654;40;2747105;-57
2021/08/06 07:30:17;;;;;;;;;8.00;6.80;;;;;20.45;66.23;98639.44;3288145;40;2737733;-57
2021/08/06 07:32:45;;;;;;;;;9.33;6.00;;;;;20.83;65.25;98641.16;3275885;40;2756475;-57
2021/08/06 07:35:13;;;;;;;;;6.00;6.00;;;;;21.11;64.62;98631.47;3275149;40;2746067;-57
2021/08/06 07:37:43;;;;;;;;;8.20;4.60;;;;;21.08;64.40;98640.03;3288561;40;2736688;-57
2021/08/06 07:40:14;;;;;;;;;4.00;4.00;;;;;21.11;63.94;98637.78;3283743;40;2743988;-57
2021/08/06 07:42:42;;;;;;;;;4.00;4.00;;;;;21.06;63.60;98640.22;3275549;40;2746052;-57
2021/08/06 07:45:11;;;;;;;;;4.33;4.33;;;;;20.70;63.36;98643.69;3275393;40;2752373;-56
2021/08/06 07:47:38;;;;;;;;;6.00;4.00;;;;;20.85;63.37;98648.28;3274472;40;2754400;-56
2021/08/06 07:50:07;;;;;;;;;5.67;5.00;;;;;20.56;63.33;98648.06;3275797;40;2750234;-55
2021/08/06 07:52:35;;;;;;;;;5.00;5.00;;;;;20.76;63.14;98659.28;3275333;40;2752341;-57
2021/08/06 07:55:05;;;;;;;;;4.00;4.00;;;;;21.30;64.11;98650.03;3275310;40;2741901;-58
2021/08/06 07:57:33;;;;;;;;;6.00;6.00;;;;;21.82;63.05;98664.59;3275031;40;2735931;-58
2021/08/06 08:00:03;;;;;;;;;4.00;4.00;;;;;21.63;61.81;98666.88;3288031;40;2743968;-58
2021/08/06 08:02:32;;;;;;;;;3.00;3.00;;;;;21.53;62.39;98663.59;3287613;40;2730435;-57
2021/08/06 08:05:00;;;;;;;;;2.67;2.67;;;;;21.81;62.10;98669.22;3259715;40;2753335;-55
2021/08/06 08:07:29;;;;;;;;;6.60;5.40;;;;;21.49;61.38;98665.03;3286815;40;2745044;-56
2021/08/06 08:09:57;;;;;;;;;3.67;3.67;;;;;21.64;61.67;98671.31;3266814;40;2744008;-57
2021/08/06 08:12:25;;;;;;;;;2.33;2.33;;;;;21.61;61.62;98671.69;3274533;40;2750222;-56
2021/08/06 08:14:56;;;;;;;;;6.00;5.14;;;;;21.98;60.95;98669.81;3298484;40;3452537;-55
2021/08/06 08:17:24;;;;;;;;;4.33;4.33;;;;;21.83;60.60;98675.34;3275622;40;2746107;-56
2021/08/06 08:19:52;;;;;;;;;4.00;4.00;;;;;22.26;60.73;98671.84;3276251;40;2738787;-55
2021/08/06 08:22:19;;;;;;;;;6.00;4.33;;;;;22.02;60.33;98668.41;3275584;40;2746063;-56
2021/08/06 08:24:47;;;;;;;;;4.33;4.33;;;;;22.03;60.44;98670.09;3276128;40;2742955;-56
2021/08/06 08:27:17;;;;;;;;;4.33;2.33;;;;;21.96;59.75;98671.94;3275784;40;2749192;-56
2021/08/06 08:29:49;;;;;;;;;4.00;4.00;;;;;21.74;60.59;98667.44;3274194;40;2747113;-56
2021/08/06 08:32:18;;;;;;;;;6.40;4.20;;;;;21.52;60.42;98678.31;3287334;40;2748392;-56
2021/08/06 08:34:46;;;;;;;;;6.00;3.33;;;;;22.25;59.62;98689.28;3259414;40;2750202;-56
2021/08/06 08:37:15;;;;;;;;;4.00;4.00;;;;;22.60;59.35;98687.56;3274981;40;2754408;-56
2021/08/06 08:39:43;;;;;;;;;3.00;3.00;;;;;21.82;61.37;98678.25;3275399;40;2746066;-56
2021/08/06 08:42:12;;;;;;;;;4.00;4.00;;;;;22.73;59.38;98693.13;3274830;40;2750226;-56
2021/08/06 08:44:40;;;;;;;;;12.67;8.00;;;;;22.84;59.56;98689.03;3272577;40;3496289;-57
2021/08/06 08:47:08;;;;;;;;;5.33;3.67;;;;;23.13;58.06;98689.91;3275236;40;2746063;-56
2021/08/06 08:49:38;;;;;;;;;3.00;3.00;;;;;22.23;58.77;98686.75;3275211;40;2739804;-57
2021/08/06 08:52:07;;;;;;;;;3.80;3.80;;;;;22.56;58.99;98686.22;3289233;40;2742931;-56
2021/08/06 08:54:37;;;;;;;;;27.00;18.00;;;;;23.05;58.60;98695.53;3281829;40;2839804;-55
2021/08/06 08:57:06;;;;;;;;;3.00;3.00;;;;;22.10;58.61;98690.16;3269653;40;2722120;-56
2021/08/06 08:59:34;;;;;;;;;3.00;3.00;;;;;22.45;60.50;98684.03;3285285;40;2733548;-55
2021/08/06 09:02:02;;;;;;;;;8.00;5.00;;;;;22.86;58.87;98703.34;3277214;40;2745037;-55
2021/08/06 09:04:30;;;;;;;;;6.00;4.33;;;;;22.44;60.10;98702.34;3275233;40;2745010;-56
2021/08/06 09:06:58;;;;;;;;;2.00;2.00;;;;;22.84;59.02;98699.13;3274780;40;2739833;-55
2021/08/06 09:09:28;;;;;;;;;4.33;3.00;;;;;23.03;57.45;98697.63;3275320;40;2747085;-54
2021/08/06 09:12:08;;;;;;;;;3.33;3.33;;;;;22.90;57.14;98704.63;3275290;40;2750225;-52
2021/08/06 09:14:37;;;;;;;;;5.00;2.33;;;;;22.98;56.60;98704.53;3275672;40;2735642;-53
2021/08/06 09:17:09;;;;;;;;;2.00;2.00;;;;;23.02;57.08;98704.16;3275466;40;2741889;-53
2021/08/06 09:19:43;;;;;;;;;2.33;2.33;;;;;23.00;57.09;98705.19;3276019;40;2727321;-53
2021/08/06 09:22:24;;;;;;;;;3.33;3.33;;;;;22.51;57.98;98707.84;3275055;40;2739833;-55
2021/08/06 09:25:06;;;;;;;;;2.00;2.00;;;;;23.09;57.31;98715.97;3274848;40;2751275;-52
2021/08/06 09:27:47;;;;;;;;;2.33;2.33;;;;;23.03;57.98;98714.03;3275752;40;2743987;-54
2021/08/06 09:30:30;;;;;;;;;11.00;4.67;;;;;22.54;58.51;98705.59;3274455;40;2781475;-54
2021/08/06 09:32:58;;;;;;;;;3.33;1.67;;;;;23.13;56.41;98714.56;3275922;40;2737729;-52
2021/08/06 09:35:29;;;;;;;;;4.00;2.00;;;;;23.51;56.39;98733.34;3275134;40;2752329;-55
2021/08/06 09:37:57;;;;;;;;;0.67;0.67;;;;;23.18;56.59;98721.13;3276442;40;2728356;-54
2021/08/06 09:40:29;;;;;;;;;3.67;2.67;;;;;23.27;54.88;98721.81;3278266;40;2737758;-55
2021/08/06 09:43:04;;;;;;;;;1.67;1.33;;;;;22.85;55.70;98723.53;3274713;40;2735647;-55
2021/08/06 09:45:39;;;;;;;;;16.67;12.00;;;;;22.84;55.26;98735.56;3272354;40;2807519;-53
2021/08/06 09:48:11;;;;;;;;;2.00;2.00;;;;;22.88;56.23;98731.38;3274971;40;2736681;-54
2021/08/06 09:50:43;;;;;;;;;2.00;2.00;;;;;23.49;55.19;98729.97;3275725;40;2737731;-54
2021/08/06 09:53:13;;;;;;;;;2.00;2.00;;;;;23.33;55.54;98720.16;3275163;40;2745026;-54
2021/08/06 09:55:45;;;;;;;;;2.00;2.00;;;;;24.14;54.85;98723.16;3275188;40;2741893;-55
2021/08/06 09:58:19;;;;;;;;;2.00;2.00;;;;;23.93;54.27;98717.78;3274333;40;2733599;-55
2021/08/06 10:01:02;;;;;;;;;4.60;2.40;;;;;24.04;54.14;98719.94;3287301;40;2752296;-52
2021/08/06 10:03:38;;;;;;;;;1.33;1.33;;;;;23.80;55.19;98716.69;3259459;40;2729400;-55
2021/08/06 10:06:15;;;;;;;;;1.00;1.00;;;;;23.68;54.68;98718.28;3275659;40;2730443;-54
2021/08/06 10:08:44;;;;;;;;;2.00;2.00;;;;;24.00;55.24;98719.50;3275231;40;2739845;-54
2021/08/06 10:11:15;;;;;;;;;1.33;1.33;;;;;23.80;54.96;98719.44;3276119;40;2727329;-54
2021/08/06 10:13:44;;;;;;;;;3.00;3.00;;;;;24.11;55.29;98729.03;3274416;40;2747112;-53
2021/08/06 10:16:12;;;;;;;;;3.00;2.00;;;;;23.77;54.78;98732.69;3275084;40;2741900;-52
2021/08/06 10:18:41;;;;;;;;;1.33;1.33;;;;;23.95;54.64;98724.75;3275503;40;2731475;-53
2021/08/06 10:21:12;;;;;;;;;1.00;1.00;;;;;23.22;55.60;98725.16;3275798;40;2728371;-54
2021/08/06 10:23:40;;;;;;;;;2.00;1.00;;;;;23.85;54.51;98727.88;3275230;40;2735635;-56
2021/08/06 10:26:08;;;;;;;;;1.00;1.00;;;;;24.01;53.00;98734.94;3275616;40;2725226;-56
2021/08/06 10:28:43;;;;;;;;;2.00;2.00;;;;;23.82;53.96;98730.19;3286400;40;2741957;-59
2021/08/06 10:31:22;;;;;;;;;2.00;2.00;;;;;23.96;58.00;98728.34;3275146;40;2744011;-49
2021/08/06 10:34:12;;;;;;;;;2.33;2.00;;;;;24.06;53.57;98726.06;3274102;40;2737738;-51
2021/08/06 10:36:51;;;;;;;;;3.00;3.00;;;;;24.38;53.14;98740.09;3275389;40;2737979;-51
2021/08/06 10:39:31;;;;;;;;;3.33;2.00;;;;;24.35;54.18;98737.78;3281691;40;2748147;-53
2021/08/06 10:42:00;;;;;;;;;2.00;2.00;;;;;24.59;51.98;98730.91;3274980;40;2739872;-54
2021/08/06 10:44:59;;;;;;;;;3.00;1.67;;;;;24.52;53.73;98742.72;3275408;40;2737713;-52
2021/08/06 10:48:02;;;;;;;;;2.00;2.00;;;;;24.41;52.51;98723.22;3275548;40;2742188;-53
2021/08/06 10:50:30;;;;;;;;;6.00;3.00;;;;;24.53;52.77;98727.94;3273059;40;2742927;-54
2021/08/06 10:53:18;;;;;;;;;2.00;2.00;;;;;25.06;50.91;98738.13;3276087;40;2735639;-51
2021/08/06 10:55:46;;;;;;;;;1.67;1.67;;;;;24.72;51.76;98742.78;3276942;40;2733567;-51
2021/08/06 10:58:53;;;;;;;;;2.00;2.00;;;;;23.95;52.35;98733.00;3275524;40;2746096;-52
2021/08/06 11:01:31;;;;;;;;;2.67;2.00;;;;;24.03;51.73;98734.72;3275561;40;2739844;-55
2021/08/06 11:04:05;;;;;;;;;2.00;1.67;;;;;24.68;51.43;98735.16;3276251;40;2733567;-56
2021/08/06 11:06:40;;;;;;;;;2.00;2.00;;;;;24.60;53.09;98730.69;3276305;40;2743964;-55
2021/08/06 11:09:34;;;;;;;;;2.00;2.00;;;;;24.52;52.01;98733.66;3275497;40;2726288;-56
2021/08/06 11:12:12;;;;;;;;;3.00;3.00;;;;;25.19;51.35;98724.41;3276139;40;2739817;-57
2021/08/06 11:14:39;;;;;;;;;2.00;2.00;;;;;24.91;51.68;98734.75;3276287;40;2739810;-56
2021/08/06 11:17:22;;;;;;;;;1.67;1.67;;;;;24.52;50.86;98736.38;3276232;40;2739801;-55
2021/08/06 11:19:52;;;;;;;;;3.00;2.00;;;;;24.86;50.39;98737.28;3276232;40;2747105;-56
2021/08/06 11:22:29;;;;;;;;;2.00;2.00;;;;;24.56;51.87;98732.16;3276135;40;2744210;-47
2021/08/06 11:25:05;;;;;;;;;1.00;1.00;;;;;24.70;51.55;98739.38;3277202;40;2727322;-57
2021/08/06 11:27:37;;;;;;;;;3.67;3.00;;;;;24.77;50.62;98744.03;3281972;40;2729420;-55